Fort Worth Nas Jrb/Carswell field
KNFW : now visible

Airfield :











YOU CAN JOIN US ON...

 
LOGIN :

Register | Disclaimer

   EN    FR    IT 

 









Legend :    VFR   Marginal VFR   IFR   Intensive IFR   Very Intensive IFR
Visi :
Ceiling :
>= 8 km
>= 3000ft
5 to 8 km
1000 to 3000 ft
1500m to 5 km
500 to 1000 ft
800 to 1500m
200 to 500 ft
< 800m
< 200 ft
Symbols :   Thunderstorms  Fog  Heavy snow  Heavy precipitations  Wind > 20 kt






- Airport Elevation : 650 ft


KNFW - Fort Worth Nas Jrb/Carswell field

CURRENT METAR :
  • 280752Z AUTO 33005KT 10SM OVC029 11/05 A3018 RMK AO2 SLP202 T01110050 $

EXPIRED METARs :
  • 280740Z AUTO 35006KT 10SM OVC029 11/05 A3018 RMK AO2 T01110050 $
  • 280652Z AUTO 35006KT 10SM FEW029 12/05 A3019 RMK AO2 SLP205 T01170050 $
  • 280552Z AUTO 05007KT 10SM FEW030 13/04 A3019 RMK AO2 SLP205 T01330039 10167 20128 401890128 51012 $

TAF TAF KNFW
Valid from the 28 at 07:00 until the 29 at 07:00 UTC


2807/2907 05010KT 9999 VCSH FEW030 BKN080 BKN250 QNH3010INS
TEMPO 2811/2816 04012KT 8000 -SHRA OVC030
TEMPO 2816/2821 35010KT 4800 +RA OVC030
BECMG 2900/2902 35010KT 8000 -RA BR OVC015 QNH3018INS
BECMG 2905/2907 31005KT 9999 NSW BKN030 BKN080 QNH3005INS AUTOMATED SENSOR METWATCH 2807 TIL 2812 T08/2813Z T17/2823Z FN00225
KZFW FIR / North America



MET'MAP, your aeronautical weather chart ! - Copyright ORBIFLY December 2007 - Disclaimer

ORBIFLY MET'MAP TEAM :

Programming & Development : Alexandra Zaïnal
Concept & original design : Baudouin d'Aumeries
Assistance for programming : Marc-Olivier Méhu
Technical & hardware support : Manuel Goepfert

Contact : metmap@orbifly.com




SOURCES & CREDITS :

   NOAA       Earth
Advisory